sensor_id;sensor_type;location;lat;lon;timestamp;temperature;humidity
21163;DHT22;10739;52.198;20.908;2022-09-03T00:00:14;12.60;99.90
21163;DHT22;10739;52.198;20.908;2022-09-03T00:03:11;12.70;99.90
21163;DHT22;10739;52.198;20.908;2022-09-03T00:09:08;12.80;99.90
21163;DHT22;10739;52.198;20.908;2022-09-03T00:12:29;12.70;99.90
21163;DHT22;10739;52.198;20.908;2022-09-03T00:15:11;12.60;99.90
21163;DHT22;10739;52.198;20.908;2022-09-03T00:20:18;12.30;99.90
21163;DHT22;10739;52.198;20.908;2022-09-03T00:23:09;12.20;99.90
21163;DHT22;10739;52.198;20.908;2022-09-03T00:25:52;12.20;99.90
21163;DHT22;10739;52.198;20.908;2022-09-03T00:31:30;12.10;99.90
21163;DHT22;10739;52.198;20.908;2022-09-03T00:34:16;12.10;99.90
21163;DHT22;10739;52.198;20.908;2022-09-03T00:36:46;12.00;99.90
21163;DHT22;10739;52.198;20.908;2022-09-03T00:39:19;11.90;99.90
21163;DHT22;10739;52.198;20.908;2022-09-03T00:56:53;11.60;99.90
21163;DHT22;10739;52.198;20.908;2022-09-03T01:25:48;11.10;99.90
21163;DHT22;10739;52.198;20.908;2022-09-03T01:31:39;11.10;99.90
21163;DHT22;10739;52.198;20.908;2022-09-03T01:45:55;11.00;99.90
21163;DHT22;10739;52.198;20.908;2022-09-03T02:00:21;10.90;99.90
21163;DHT22;10739;52.198;20.908;2022-09-03T02:02:50;10.80;99.90
21163;DHT22;10739;52.198;20.908;2022-09-03T02:05:22;10.80;99.90
21163;DHT22;10739;52.198;20.908;2022-09-03T02:08:08;10.80;99.90
21163;DHT22;10739;52.198;20.908;2022-09-03T02:10:50;10.80;99.90
21163;DHT22;10739;52.198;20.908;2022-09-03T02:13:19;10.70;99.90
21163;DHT22;10739;52.198;20.908;2022-09-03T02:15:52;10.70;99.90
21163;DHT22;10739;52.198;20.908;2022-09-03T02:18:29;10.70;99.90
21163;DHT22;10739;52.198;20.908;2022-09-03T02:20:59;10.70;99.90
21163;DHT22;10739;52.198;20.908;2022-09-03T02:23:26;10.70;99.90
21163;DHT22;10739;52.198;20.908;2022-09-03T02:25:59;10.60;99.90
21163;DHT22;10739;52.198;20.908;2022-09-03T02:28:29;10.50;99.90
21163;DHT22;10739;52.198;20.908;2022-09-03T02:30:56;10.50;99.90
21163;DHT22;10739;52.198;20.908;2022-09-03T02:33:23;10.50;99.90
21163;DHT22;10739;52.198;20.908;2022-09-03T02:35:50;10.50;99.90
21163;DHT22;10739;52.198;20.908;2022-09-03T02:38:23;10.50;99.90
21163;DHT22;10739;52.198;20.908;2022-09-03T02:40:53;10.40;99.90
21163;DHT22;10739;52.198;20.908;2022-09-03T02:46:01;10.40;99.90
21163;DHT22;10739;52.198;20.908;2022-09-03T02:48:29;10.40;99.90
21163;DHT22;10739;52.198;20.908;2022-09-03T02:50:56;10.40;99.90
21163;DHT22;10739;52.198;20.908;2022-09-03T02:53:22;10.40;99.90
21163;DHT22;10739;52.198;20.908;2022-09-03T02:55:48;10.40;99.90
21163;DHT22;10739;52.198;20.908;2022-09-03T02:58:14;10.30;99.90
21163;DHT22;10739;52.198;20.908;2022-09-03T03:00:41;10.20;99.90
21163;DHT22;10739;52.198;20.908;2022-09-03T03:03:07;10.20;99.90
21163;DHT22;10739;52.198;20.908;2022-09-03T03:05:51;10.10;99.90
21163;DHT22;10739;52.198;20.908;2022-09-03T03:08:24;10.10;99.90
21163;DHT22;10739;52.198;20.908;2022-09-03T03:10:57;10.10;99.90
21163;DHT22;10739;52.198;20.908;2022-09-03T03:13:27;10.00;99.90
21163;DHT22;10739;52.198;20.908;2022-09-03T03:15:58;10.10;99.90
21163;DHT22;10739;52.198;20.908;2022-09-03T03:18:26;10.10;99.90
21163;DHT22;10739;52.198;20.908;2022-09-03T03:20:53;10.00;99.90
21163;DHT22;10739;52.198;20.908;2022-09-03T03:23:20;9.90;99.90
21163;DHT22;10739;52.198;20.908;2022-09-03T03:25:46;9.90;99.90
21163;DHT22;10739;52.198;20.908;2022-09-03T03:28:13;9.90;99.90
21163;DHT22;10739;52.198;20.908;2022-09-03T03:30:40;9.80;99.90
21163;DHT22;10739;52.198;20.908;2022-09-03T03:33:08;9.70;99.90
21163;DHT22;10739;52.198;20.908;2022-09-03T03:35:35;9.60;99.90
21163;DHT22;10739;52.198;20.908;2022-09-03T03:38:02;9.50;99.90
21163;DHT22;10739;52.198;20.908;2022-09-03T03:40:29;9.50;99.90
21163;DHT22;10739;52.198;20.908;2022-09-03T03:42:57;9.50;99.90
21163;DHT22;10739;52.198;20.908;2022-09-03T03:45:23;9.50;99.90
21163;DHT22;10739;52.198;20.908;2022-09-03T03:47:49;9.50;99.90
21163;DHT22;10739;52.198;20.908;2022-09-03T03:50:15;9.50;99.90
21163;DHT22;10739;52.198;20.908;2022-09-03T03:52:42;9.50;99.90
21163;DHT22;10739;52.198;20.908;2022-09-03T03:55:08;9.50;99.90
21163;DHT22;10739;52.198;20.908;2022-09-03T03:57:34;9.50;99.90
21163;DHT22;10739;52.198;20.908;2022-09-03T04:00:01;9.50;99.90
21163;DHT22;10739;52.198;20.908;2022-09-03T04:02:28;9.40;99.90
21163;DHT22;10739;52.198;20.908;2022-09-03T04:04:54;9.40;99.90
21163;DHT22;10739;52.198;20.908;2022-09-03T04:07:21;9.40;99.90
21163;DHT22;10739;52.198;20.908;2022-09-03T04:09:47;9.40;99.90
21163;DHT22;10739;52.198;20.908;2022-09-03T04:12:13;9.50;99.90
21163;DHT22;10739;52.198;20.908;2022-09-03T04:14:39;9.50;99.90
21163;DHT22;10739;52.198;20.908;2022-09-03T04:17:07;9.60;99.90
21163;DHT22;10739;52.198;20.908;2022-09-03T04:19:33;9.60;99.90
21163;DHT22;10739;52.198;20.908;2022-09-03T04:21:59;9.60;99.90
21163;DHT22;10739;52.198;20.908;2022-09-03T04:24:25;9.60;99.90
21163;DHT22;10739;52.198;20.908;2022-09-03T04:26:52;9.70;99.90
21163;DHT22;10739;52.198;20.908;2022-09-03T04:29:19;9.70;99.90
21163;DHT22;10739;52.198;20.908;2022-09-03T04:31:46;9.70;99.90
21163;DHT22;10739;52.198;20.908;2022-09-03T04:34:31;9.80;99.90
21163;DHT22;10739;52.198;20.908;2022-09-03T04:36:57;9.90;99.90
21163;DHT22;10739;52.198;20.908;2022-09-03T04:39:24;9.90;99.90
21163;DHT22;10739;52.198;20.908;2022-09-03T04:41:50;10.00;99.90
21163;DHT22;10739;52.198;20.908;2022-09-03T04:44:16;10.00;99.90
21163;DHT22;10739;52.198;20.908;2022-09-03T04:46:42;10.00;99.90
21163;DHT22;10739;52.198;20.908;2022-09-03T04:49:12;10.00;99.90
21163;DHT22;10739;52.198;20.908;2022-09-03T04:51:39;10.10;99.90
21163;DHT22;10739;52.198;20.908;2022-09-03T04:54:05;10.10;99.90
21163;DHT22;10739;52.198;20.908;2022-09-03T04:56:33;10.20;99.90
21163;DHT22;10739;52.198;20.908;2022-09-03T04:59:02;10.20;99.90
21163;DHT22;10739;52.198;20.908;2022-09-03T05:01:33;10.30;99.90
21163;DHT22;10739;52.198;20.908;2022-09-03T05:04:01;10.30;99.90
21163;DHT22;10739;52.198;20.908;2022-09-03T05:06:29;10.40;99.90
21163;DHT22;10739;52.198;20.908;2022-09-03T05:08:56;10.50;99.90
21163;DHT22;10739;52.198;20.908;2022-09-03T05:11:24;10.60;99.90
21163;DHT22;10739;52.198;20.908;2022-09-03T05:13:53;10.70;99.90
21163;DHT22;10739;52.198;20.908;2022-09-03T05:16:22;10.80;99.90
21163;DHT22;10739;52.198;20.908;2022-09-03T05:18:53;10.80;99.90
21163;DHT22;10739;52.198;20.908;2022-09-03T05:21:21;11.00;99.90
21163;DHT22;10739;52.198;20.908;2022-09-03T05:23:49;11.00;99.90
21163;DHT22;10739;52.198;20.908;2022-09-03T05:26:19;11.10;99.90
21163;DHT22;10739;52.198;20.908;2022-09-03T05:28:51;11.20;99.90
21163;DHT22;10739;52.198;20.908;2022-09-03T05:31:34;11.30;99.90
21163;DHT22;10739;52.198;20.908;2022-09-03T05:34:03;11.40;99.90
21163;DHT22;10739;52.198;20.908;2022-09-03T05:36:35;11.50;99.90
21163;DHT22;10739;52.198;20.908;2022-09-03T05:39:04;11.60;99.90
21163;DHT22;10739;52.198;20.908;2022-09-03T05:41:30;11.70;99.90
21163;DHT22;10739;52.198;20.908;2022-09-03T05:43:58;11.80;99.90
21163;DHT22;10739;52.198;20.908;2022-09-03T05:46:27;12.00;99.90
21163;DHT22;10739;52.198;20.908;2022-09-03T05:49:06;12.10;99.90
21163;DHT22;10739;52.198;20.908;2022-09-03T05:51:34;12.20;99.90
21163;DHT22;10739;52.198;20.908;2022-09-03T05:54:01;12.40;99.90
21163;DHT22;10739;52.198;20.908;2022-09-03T05:56:29;12.50;99.90
21163;DHT22;10739;52.198;20.908;2022-09-03T05:58:59;12.60;99.90
21163;DHT22;10739;52.198;20.908;2022-09-03T06:01:31;12.70;99.90
21163;DHT22;10739;52.198;20.908;2022-09-03T06:04:03;12.80;99.90
21163;DHT22;10739;52.198;20.908;2022-09-03T06:06:33;12.90;99.90
21163;DHT22;10739;52.198;20.908;2022-09-03T06:09:03;13.00;99.90
21163;DHT22;10739;52.198;20.908;2022-09-03T06:11:34;13.20;99.90
21163;DHT22;10739;52.198;20.908;2022-09-03T06:14:06;13.40;99.90
21163;DHT22;10739;52.198;20.908;2022-09-03T06:16:36;13.50;99.90
21163;DHT22;10739;52.198;20.908;2022-09-03T06:19:05;13.70;99.90
21163;DHT22;10739;52.198;20.908;2022-09-03T06:21:34;13.80;99.90
21163;DHT22;10739;52.198;20.908;2022-09-03T06:24:13;13.90;99.90
21163;DHT22;10739;52.198;20.908;2022-09-03T06:26:42;14.10;99.90
21163;DHT22;10739;52.198;20.908;2022-09-03T06:29:08;14.30;99.90
21163;DHT22;10739;52.198;20.908;2022-09-03T06:31:35;14.50;99.90
21163;DHT22;10739;52.198;20.908;2022-09-03T06:34:01;14.70;99.90
21163;DHT22;10739;52.198;20.908;2022-09-03T06:36:27;14.90;99.90
21163;DHT22;10739;52.198;20.908;2022-09-03T06:38:55;15.00;99.90
21163;DHT22;10739;52.198;20.908;2022-09-03T06:41:25;15.20;99.90
21163;DHT22;10739;52.198;20.908;2022-09-03T06:44:05;15.40;99.90
21163;DHT22;10739;52.198;20.908;2022-09-03T06:46:37;15.50;99.90
21163;DHT22;10739;52.198;20.908;2022-09-03T06:49:07;15.70;99.90
21163;DHT22;10739;52.198;20.908;2022-09-03T06:51:34;15.90;99.90
21163;DHT22;10739;52.198;20.908;2022-09-03T06:54:04;16.00;99.90
21163;DHT22;10739;52.198;20.908;2022-09-03T06:56:34;16.20;99.90
21163;DHT22;10739;52.198;20.908;2022-09-03T06:59:10;16.40;99.90
21163;DHT22;10739;52.198;20.908;2022-09-03T07:01:37;16.70;99.90
21163;DHT22;10739;52.198;20.908;2022-09-03T07:04:06;16.90;99.90
21163;DHT22;10739;52.198;20.908;2022-09-03T07:06:37;17.20;99.90
21163;DHT22;10739;52.198;20.908;2022-09-03T07:09:06;17.60;99.90
21163;DHT22;10739;52.198;20.908;2022-09-03T07:11:33;18.00;99.90
21163;DHT22;10739;52.198;20.908;2022-09-03T07:14:02;18.30;99.90
21163;DHT22;10739;52.198;20.908;2022-09-03T07:16:34;18.50;99.90
21163;DHT22;10739;52.198;20.908;2022-09-03T07:19:01;18.60;99.90
21163;DHT22;10739;52.198;20.908;2022-09-03T07:21:31;18.60;99.90
21163;DHT22;10739;52.198;20.908;2022-09-03T07:23:59;18.70;99.90
21163;DHT22;10739;52.198;20.908;2022-09-03T07:26:30;18.80;99.90
21163;DHT22;10739;52.198;20.908;2022-09-03T07:28:59;18.90;99.90
21163;DHT22;10739;52.198;20.908;2022-09-03T07:31:31;18.90;99.90
21163;DHT22;10739;52.198;20.908;2022-09-03T07:34:00;19.00;99.90
21163;DHT22;10739;52.198;20.908;2022-09-03T07:36:30;19.20;99.90
21163;DHT22;10739;52.198;20.908;2022-09-03T07:39:03;19.30;99.90
21163;DHT22;10739;52.198;20.908;2022-09-03T07:41:30;19.50;99.90
21163;DHT22;10739;52.198;20.908;2022-09-03T07:43:59;19.60;99.90
21163;DHT22;10739;52.198;20.908;2022-09-03T07:46:32;19.70;99.90
21163;DHT22;10739;52.198;20.908;2022-09-03T07:49:00;19.80;99.90
21163;DHT22;10739;52.198;20.908;2022-09-03T07:51:29;20.00;99.90
21163;DHT22;10739;52.198;20.908;2022-09-03T07:53:59;20.20;99.90
21163;DHT22;10739;52.198;20.908;2022-09-03T07:56:34;20.30;99.60
21163;DHT22;10739;52.198;20.908;2022-09-03T07:59:01;20.40;99.90
21163;DHT22;10739;52.198;20.908;2022-09-03T08:01:30;20.50;98.80
21163;DHT22;10739;52.198;20.908;2022-09-03T08:03:58;20.40;96.30
21163;DHT22;10739;52.198;20.908;2022-09-03T08:06:26;20.40;94.50
21163;DHT22;10739;52.198;20.908;2022-09-03T08:08:55;20.50;94.50
21163;DHT22;10739;52.198;20.908;2022-09-03T08:11:25;20.40;95.20
21163;DHT22;10739;52.198;20.908;2022-09-03T08:14:00;20.80;94.40
21163;DHT22;10739;52.198;20.908;2022-09-03T08:16:30;21.00;93.40
21163;DHT22;10739;52.198;20.908;2022-09-03T08:18:58;21.00;92.60
21163;DHT22;10739;52.198;20.908;2022-09-03T08:21:25;21.20;92.40
21163;DHT22;10739;52.198;20.908;2022-09-03T08:23:53;21.40;90.70
21163;DHT22;10739;52.198;20.908;2022-09-03T08:26:34;21.70;90.40
21163;DHT22;10739;52.198;20.908;2022-09-03T08:29:02;22.10;91.70
21163;DHT22;10739;52.198;20.908;2022-09-03T08:31:30;22.40;90.20
21163;DHT22;10739;52.198;20.908;2022-09-03T08:33:58;22.90;89.40
21163;DHT22;10739;52.198;20.908;2022-09-03T08:36:33;23.60;85.30
21163;DHT22;10739;52.198;20.908;2022-09-03T08:39:03;24.20;82.00
21163;DHT22;10739;52.198;20.908;2022-09-03T08:44:24;25.50;77.30
21163;DHT22;10739;52.198;20.908;2022-09-03T08:47:13;26.50;73.90
21163;DHT22;10739;52.198;20.908;2022-09-03T08:58:17;25.10;71.90
21163;DHT22;10739;52.198;20.908;2022-09-03T09:01:14;26.60;70.30
21163;DHT22;10739;52.198;20.908;2022-09-03T09:06:59;25.90;70.30
21163;DHT22;10739;52.198;20.908;2022-09-03T09:12:58;27.50;65.80
21163;DHT22;10739;52.198;20.908;2022-09-03T09:22:02;28.40;62.30
21163;DHT22;10739;52.198;20.908;2022-09-03T09:24:43;26.50;63.40
21163;DHT22;10739;52.198;20.908;2022-09-03T09:27:14;26.30;66.00
21163;DHT22;10739;52.198;20.908;2022-09-03T09:29:45;27.30;64.10
21163;DHT22;10739;52.198;20.908;2022-09-03T09:32:15;28.10;63.00
21163;DHT22;10739;52.198;20.908;2022-09-03T09:34:44;28.30;62.30
21163;DHT22;10739;52.198;20.908;2022-09-03T09:37:13;28.80;62.10
21163;DHT22;10739;52.198;20.908;2022-09-03T09:39:53;29.70;59.90
21163;DHT22;10739;52.198;20.908;2022-09-03T09:42:22;29.80;60.00
21163;DHT22;10739;52.198;20.908;2022-09-03T09:44:48;30.00;58.70
21163;DHT22;10739;52.198;20.908;2022-09-03T09:47:26;29.40;58.70
21163;DHT22;10739;52.198;20.908;2022-09-03T09:49:58;28.60;60.30
21163;DHT22;10739;52.198;20.908;2022-09-03T09:52:27;28.10;60.60
21163;DHT22;10739;52.198;20.908;2022-09-03T09:55:13;29.20;61.40
21163;DHT22;10739;52.198;20.908;2022-09-03T09:57:43;30.30;57.90
21163;DHT22;10739;52.198;20.908;2022-09-03T10:00:12;30.70;56.70
21163;DHT22;10739;52.198;20.908;2022-09-03T10:02:47;30.30;57.00
21163;DHT22;10739;52.198;20.908;2022-09-03T10:05:23;30.20;57.20
21163;DHT22;10739;52.198;20.908;2022-09-03T10:08:03;29.00;57.20
21163;DHT22;10739;52.198;20.908;2022-09-03T10:10:51;28.30;57.60
21163;DHT22;10739;52.198;20.908;2022-09-03T10:13:29;27.20;58.50
21163;DHT22;10739;52.198;20.908;2022-09-03T10:16:26;26.90;58.70
21163;DHT22;10739;52.198;20.908;2022-09-03T10:19:08;27.90;57.90
21163;DHT22;10739;52.198;20.908;2022-09-03T10:21:47;28.00;58.30
21163;DHT22;10739;52.198;20.908;2022-09-03T10:27:22;29.30;56.10
21163;DHT22;10739;52.198;20.908;2022-09-03T10:29:50;29.70;56.50
21163;DHT22;10739;52.198;20.908;2022-09-03T10:35:09;30.10;54.70
21163;DHT22;10739;52.198;20.908;2022-09-03T10:38:19;28.10;56.40
21163;DHT22;10739;52.198;20.908;2022-09-03T10:41:11;26.90;58.30
21163;DHT22;10739;52.198;20.908;2022-09-03T10:50:14;26.70;58.30
21163;DHT22;10739;52.198;20.908;2022-09-03T10:58:47;24.10;63.40
21163;DHT22;10739;52.198;20.908;2022-09-03T11:07:44;22.80;66.10
21163;DHT22;10739;52.198;20.908;2022-09-03T11:10:31;22.70;67.30
21163;DHT22;10739;52.198;20.908;2022-09-03T11:13:13;22.70;66.60
21163;DHT22;10739;52.198;20.908;2022-09-03T11:15:52;22.60;68.10
21163;DHT22;10739;52.198;20.908;2022-09-03T11:19:10;22.80;68.00
21163;DHT22;10739;52.198;20.908;2022-09-03T11:21:25;22.70;66.60
21163;DHT22;10739;52.198;20.908;2022-09-03T11:24:28;22.50;67.10
21163;DHT22;10739;52.198;20.908;2022-09-03T11:27:14;22.50;67.10
21163;DHT22;10739;52.198;20.908;2022-09-03T11:32:46;22.10;67.50
21163;DHT22;10739;52.198;20.908;2022-09-03T11:35:43;22.10;66.70
21163;DHT22;10739;52.198;20.908;2022-09-03T11:43:42;22.30;67.70
21163;DHT22;10739;52.198;20.908;2022-09-03T11:48:54;22.10;67.60
21163;DHT22;10739;52.198;20.908;2022-09-03T11:51:39;22.00;67.50
21163;DHT22;10739;52.198;20.908;2022-09-03T11:54:23;22.00;67.80
21163;DHT22;10739;52.198;20.908;2022-09-03T11:57:12;22.20;70.60
21163;DHT22;10739;52.198;20.908;2022-09-03T11:59:46;22.30;67.40
21163;DHT22;10739;52.198;20.908;2022-09-03T12:02:34;22.30;68.80
21163;DHT22;10739;52.198;20.908;2022-09-03T12:14:47;22.50;67.80
21163;DHT22;10739;52.198;20.908;2022-09-03T12:20:11;22.50;68.20
21163;DHT22;10739;52.198;20.908;2022-09-03T12:22:40;22.50;68.10
21163;DHT22;10739;52.198;20.908;2022-09-03T12:25:12;22.50;68.50
21163;DHT22;10739;52.198;20.908;2022-09-03T12:27:43;22.70;68.70
21163;DHT22;10739;52.198;20.908;2022-09-03T12:30:21;22.60;68.00
21163;DHT22;10739;52.198;20.908;2022-09-03T12:32:50;22.60;69.10
21163;DHT22;10739;52.198;20.908;2022-09-03T12:35:23;22.50;69.50
21163;DHT22;10739;52.198;20.908;2022-09-03T12:37:51;22.70;69.00
21163;DHT22;10739;52.198;20.908;2022-09-03T12:40:24;22.90;69.20
21163;DHT22;10739;52.198;20.908;2022-09-03T12:42:53;22.80;68.80
21163;DHT22;10739;52.198;20.908;2022-09-03T12:45:22;22.60;68.10
21163;DHT22;10739;52.198;20.908;2022-09-03T12:47:52;22.70;68.50
21163;DHT22;10739;52.198;20.908;2022-09-03T12:50:22;22.70;67.60
21163;DHT22;10739;52.198;20.908;2022-09-03T12:52:53;22.50;67.10
21163;DHT22;10739;52.198;20.908;2022-09-03T12:55:42;22.70;67.90
21163;DHT22;10739;52.198;20.908;2022-09-03T12:58:34;22.80;67.00
21163;DHT22;10739;52.198;20.908;2022-09-03T13:01:19;23.00;66.60
21163;DHT22;10739;52.198;20.908;2022-09-03T13:04:08;23.00;66.60
21163;DHT22;10739;52.198;20.908;2022-09-03T13:06:45;23.00;66.10
21163;DHT22;10739;52.198;20.908;2022-09-03T13:09:15;23.00;65.90
21163;DHT22;10739;52.198;20.908;2022-09-03T13:11:47;22.80;65.80
21163;DHT22;10739;52.198;20.908;2022-09-03T13:14:15;22.80;66.30
21163;DHT22;10739;52.198;20.908;2022-09-03T13:19:29;23.00;68.00
21163;DHT22;10739;52.198;20.908;2022-09-03T13:25:08;22.90;68.70
21163;DHT22;10739;52.198;20.908;2022-09-03T13:29:07;23.00;68.50
21163;DHT22;10739;52.198;20.908;2022-09-03T13:37:24;25.20;63.20
21163;DHT22;10739;52.198;20.908;2022-09-03T13:39:58;25.60;60.90
21163;DHT22;10739;52.198;20.908;2022-09-03T13:42:50;26.50;59.50
21163;DHT22;10739;52.198;20.908;2022-09-03T13:46:09;27.50;59.50
21163;DHT22;10739;52.198;20.908;2022-09-03T13:48:39;28.10;56.90
21163;DHT22;10739;52.198;20.908;2022-09-03T13:51:45;29.20;56.40
21163;DHT22;10739;52.198;20.908;2022-09-03T13:54:26;29.60;54.70
21163;DHT22;10739;52.198;20.908;2022-09-03T13:57:00;28.80;54.90
21163;DHT22;10739;52.198;20.908;2022-09-03T14:00:51;28.90;55.40
21163;DHT22;10739;52.198;20.908;2022-09-03T14:03:11;29.80;55.60
21163;DHT22;10739;52.198;20.908;2022-09-03T14:05:59;29.30;55.00
21163;DHT22;10739;52.198;20.908;2022-09-03T14:14:48;28.60;56.70
21163;DHT22;10739;52.198;20.908;2022-09-03T14:17:31;28.20;57.90
21163;DHT22;10739;52.198;20.908;2022-09-03T14:20:28;28.30;56.60
21163;DHT22;10739;52.198;20.908;2022-09-03T14:26:33;27.70;56.30
21163;DHT22;10739;52.198;20.908;2022-09-03T14:29:14;27.40;57.30
21163;DHT22;10739;52.198;20.908;2022-09-03T14:48:52;25.90;59.20
21163;DHT22;10739;52.198;20.908;2022-09-03T15:06:49;22.50;66.90
21163;DHT22;10739;52.198;20.908;2022-09-03T15:14:40;22.10;68.20
21163;DHT22;10739;52.198;20.908;2022-09-03T15:20:15;21.90;68.40
21163;DHT22;10739;52.198;20.908;2022-09-03T15:23:19;21.90;68.80
21163;DHT22;10739;52.198;20.908;2022-09-03T15:36:51;21.60;69.10
21163;DHT22;10739;52.198;20.908;2022-09-03T15:39:27;21.60;69.30
21163;DHT22;10739;52.198;20.908;2022-09-03T15:45:02;21.50;69.60
21163;DHT22;10739;52.198;20.908;2022-09-03T15:47:52;21.50;70.00
21163;DHT22;10739;52.198;20.908;2022-09-03T15:54:22;21.30;70.00
21163;DHT22;10739;52.198;20.908;2022-09-03T15:57:16;21.30;70.30
21163;DHT22;10739;52.198;20.908;2022-09-03T16:00:21;21.20;70.60
21163;DHT22;10739;52.198;20.908;2022-09-03T16:03:09;21.20;70.60
21163;DHT22;10739;52.198;20.908;2022-09-03T16:05:46;21.20;71.10
21163;DHT22;10739;52.198;20.908;2022-09-03T16:08:40;21.10;71.90
21163;DHT22;10739;52.198;20.908;2022-09-03T16:11:55;21.10;72.30
21163;DHT22;10739;52.198;20.908;2022-09-03T16:14:49;21.00;72.30
21163;DHT22;10739;52.198;20.908;2022-09-03T16:18:03;21.10;72.70
21163;DHT22;10739;52.198;20.908;2022-09-03T16:20:43;21.00;72.50
21163;DHT22;10739;52.198;20.908;2022-09-03T16:23:22;21.00;72.40
21163;DHT22;10739;52.198;20.908;2022-09-03T16:26:02;20.90;73.10
21163;DHT22;10739;52.198;20.908;2022-09-03T16:28:51;20.90;72.70
21163;DHT22;10739;52.198;20.908;2022-09-03T16:40:30;20.50;74.20
21163;DHT22;10739;52.198;20.908;2022-09-03T16:48:56;20.20;75.90
21163;DHT22;10739;52.198;20.908;2022-09-03T17:06:35;19.60;78.20
21163;DHT22;10739;52.198;20.908;2022-09-03T17:15:25;19.40;80.30
21163;DHT22;10739;52.198;20.908;2022-09-03T17:18:18;19.30;79.80
21163;DHT22;10739;52.198;20.908;2022-09-03T17:32:30;18.70;84.60
21163;DHT22;10739;52.198;20.908;2022-09-03T17:41:11;18.30;85.70
21163;DHT22;10739;52.198;20.908;2022-09-03T17:44:13;18.20;86.70
21163;DHT22;10739;52.198;20.908;2022-09-03T17:50:20;18.00;87.40
21163;DHT22;10739;52.198;20.908;2022-09-03T17:53:16;17.90;89.40
21163;DHT22;10739;52.198;20.908;2022-09-03T17:59:09;17.60;91.30
21163;DHT22;10739;52.198;20.908;2022-09-03T18:02:00;17.50;91.30
21163;DHT22;10739;52.198;20.908;2022-09-03T18:04:49;17.40;91.50
21163;DHT22;10739;52.198;20.908;2022-09-03T18:07:42;17.30;92.00
21163;DHT22;10739;52.198;20.908;2022-09-03T18:10:56;17.10;92.50
21163;DHT22;10739;52.198;20.908;2022-09-03T18:16:35;17.00;92.90
21163;DHT22;10739;52.198;20.908;2022-09-03T18:19:47;16.80;93.00
21163;DHT22;10739;52.198;20.908;2022-09-03T18:22:51;16.80;93.20
21163;DHT22;10739;52.198;20.908;2022-09-03T18:25:46;16.70;93.30
21163;DHT22;10739;52.198;20.908;2022-09-03T18:29:02;16.60;94.20
21163;DHT22;10739;52.198;20.908;2022-09-03T18:31:50;16.50;94.80
21163;DHT22;10739;52.198;20.908;2022-09-03T18:34:35;16.40;95.00
21163;DHT22;10739;52.198;20.908;2022-09-03T18:37:24;16.30;95.40
21163;DHT22;10739;52.198;20.908;2022-09-03T18:40:18;16.30;95.60
21163;DHT22;10739;52.198;20.908;2022-09-03T18:47:07;16.20;96.10
21163;DHT22;10739;52.198;20.908;2022-09-03T18:56:53;16.00;97.70
21163;DHT22;10739;52.198;20.908;2022-09-03T18:59:54;15.90;98.40
21163;DHT22;10739;52.198;20.908;2022-09-03T19:08:43;15.70;99.60
21163;DHT22;10739;52.198;20.908;2022-09-03T19:15:13;15.60;99.90
21163;DHT22;10739;52.198;20.908;2022-09-03T19:21:35;15.40;99.90
21163;DHT22;10739;52.198;20.908;2022-09-03T19:24:28;15.30;99.90
21163;DHT22;10739;52.198;20.908;2022-09-03T19:33:50;15.10;99.90
21163;DHT22;10739;52.198;20.908;2022-09-03T19:53:11;14.90;99.90
21163;DHT22;10739;52.198;20.908;2022-09-03T19:56:01;14.90;99.90
21163;DHT22;10739;52.198;20.908;2022-09-03T19:59:00;14.80;99.90
21163;DHT22;10739;52.198;20.908;2022-09-03T20:01:50;14.70;99.90
21163;DHT22;10739;52.198;20.908;2022-09-03T20:04:45;14.70;99.90
21163;DHT22;10739;52.198;20.908;2022-09-03T20:07:36;14.60;99.90
21163;DHT22;10739;52.198;20.908;2022-09-03T20:10:23;14.60;99.90
21163;DHT22;10739;52.198;20.908;2022-09-03T20:13:07;14.70;99.90
21163;DHT22;10739;52.198;20.908;2022-09-03T20:21:42;15.00;99.90
21163;DHT22;10739;52.198;20.908;2022-09-03T20:30:09;15.30;99.90
21163;DHT22;10739;52.198;20.908;2022-09-03T20:38:48;15.50;99.90
21163;DHT22;10739;52.198;20.908;2022-09-03T20:42:02;15.50;99.90
21163;DHT22;10739;52.198;20.908;2022-09-03T20:50:24;15.10;99.90
21163;DHT22;10739;52.198;20.908;2022-09-03T20:55:56;15.00;99.90
21163;DHT22;10739;52.198;20.908;2022-09-03T21:11:23;14.60;99.90
21163;DHT22;10739;52.198;20.908;2022-09-03T21:14:23;14.60;99.90
21163;DHT22;10739;52.198;20.908;2022-09-03T21:17:15;14.70;99.90
21163;DHT22;10739;52.198;20.908;2022-09-03T21:25:37;14.50;99.90
21163;DHT22;10739;52.198;20.908;2022-09-03T21:31:17;14.40;99.90
21163;DHT22;10739;52.198;20.908;2022-09-03T21:33:54;14.40;99.90
21163;DHT22;10739;52.198;20.908;2022-09-03T21:36:34;14.30;99.90
21163;DHT22;10739;52.198;20.908;2022-09-03T21:41:42;14.30;99.90
21163;DHT22;10739;52.198;20.908;2022-09-03T21:44:16;14.20;99.90
21163;DHT22;10739;52.198;20.908;2022-09-03T21:47:11;14.10;99.90
21163;DHT22;10739;52.198;20.908;2022-09-03T21:52:43;14.00;99.90
21163;DHT22;10739;52.198;20.908;2022-09-03T22:00:42;13.90;99.90
21163;DHT22;10739;52.198;20.908;2022-09-03T22:03:10;13.80;99.90
21163;DHT22;10739;52.198;20.908;2022-09-03T22:06:00;13.80;99.90
21163;DHT22;10739;52.198;20.908;2022-09-03T22:08:53;13.80;99.90
21163;DHT22;10739;52.198;20.908;2022-09-03T22:11:53;13.80;99.90
21163;DHT22;10739;52.198;20.908;2022-09-03T22:14:31;13.90;99.90
21163;DHT22;10739;52.198;20.908;2022-09-03T22:17:07;14.00;99.90
21163;DHT22;10739;52.198;20.908;2022-09-03T22:19:41;14.00;99.90
21163;DHT22;10739;52.198;20.908;2022-09-03T22:22:35;14.00;99.90
21163;DHT22;10739;52.198;20.908;2022-09-03T22:25:14;14.10;99.90
21163;DHT22;10739;52.198;20.908;2022-09-03T22:30:17;14.00;99.90
21163;DHT22;10739;52.198;20.908;2022-09-03T22:33:36;14.00;99.90
21163;DHT22;10739;52.198;20.908;2022-09-03T22:36:27;14.00;99.90
21163;DHT22;10739;52.198;20.908;2022-09-03T22:42:18;13.90;99.90
21163;DHT22;10739;52.198;20.908;2022-09-03T22:55:40;13.80;99.90
21163;DHT22;10739;52.198;20.908;2022-09-03T22:58:15;13.80;99.90
21163;DHT22;10739;52.198;20.908;2022-09-03T23:00:49;13.80;99.90
21163;DHT22;10739;52.198;20.908;2022-09-03T23:06:31;13.80;99.90
21163;DHT22;10739;52.198;20.908;2022-09-03T23:09:13;13.70;99.90
21163;DHT22;10739;52.198;20.908;2022-09-03T23:11:52;13.70;99.90
21163;DHT22;10739;52.198;20.908;2022-09-03T23:14:27;13.70;99.90
21163;DHT22;10739;52.198;20.908;2022-09-03T23:17:05;13.70;99.90
21163;DHT22;10739;52.198;20.908;2022-09-03T23:19:43;13.70;99.90